sensor_id;sensor_type;location;lat;lon;timestamp;P1;durP1;ratioP1;P2;durP2;ratioP2
14584;SDS011;7379;51.506;11.876;2022-07-03T00:00:23;3.35;;;3.05;;
14584;SDS011;7379;51.506;11.876;2022-07-03T00:02:49;4.93;;;2.85;;
14584;SDS011;7379;51.506;11.876;2022-07-03T00:05:16;4.35;;;3.05;;
14584;SDS011;7379;51.506;11.876;2022-07-03T00:07:44;3.45;;;2.85;;
14584;SDS011;7379;51.506;11.876;2022-07-03T00:10:20;7.30;;;3.10;;
14584;SDS011;7379;51.506;11.876;2022-07-03T00:12:50;3.83;;;2.95;;
14584;SDS011;7379;51.506;11.876;2022-07-03T00:15:36;3.95;;;3.20;;
14584;SDS011;7379;51.506;11.876;2022-07-03T00:18:06;3.42;;;3.05;;
14584;SDS011;7379;51.506;11.876;2022-07-03T00:21:01;3.28;;;2.80;;
14584;SDS011;7379;51.506;11.876;2022-07-03T00:23:32;3.10;;;2.88;;
14584;SDS011;7379;51.506;11.876;2022-07-03T00:26:06;3.65;;;2.80;;
14584;SDS011;7379;51.506;11.876;2022-07-03T00:28:34;3.92;;;2.92;;
14584;SDS011;7379;51.506;11.876;2022-07-03T00:31:01;3.40;;;3.10;;
14584;SDS011;7379;51.506;11.876;2022-07-03T00:33:29;4.10;;;3.03;;
14584;SDS011;7379;51.506;11.876;2022-07-03T00:35:59;4.55;;;3.60;;
14584;SDS011;7379;51.506;11.876;2022-07-03T00:38:26;4.80;;;3.28;;
14584;SDS011;7379;51.506;11.876;2022-07-03T00:41:04;4.40;;;3.30;;
14584;SDS011;7379;51.506;11.876;2022-07-03T00:45:03;3.83;;;3.10;;
14584;SDS011;7379;51.506;11.876;2022-07-03T00:50:58;3.85;;;3.15;;
14584;SDS011;7379;51.506;11.876;2022-07-03T00:53:26;3.50;;;3.20;;
14584;SDS011;7379;51.506;11.876;2022-07-03T00:55:55;3.95;;;3.20;;
14584;SDS011;7379;51.506;11.876;2022-07-03T00:58:25;5.07;;;3.20;;
14584;SDS011;7379;51.506;11.876;2022-07-03T01:00:52;5.60;;;3.20;;
14584;SDS011;7379;51.506;11.876;2022-07-03T01:03:21;6.13;;;3.10;;
14584;SDS011;7379;51.506;11.876;2022-07-03T01:05:51;5.30;;;3.25;;
14584;SDS011;7379;51.506;11.876;2022-07-03T01:08:20;3.20;;;3.00;;
14584;SDS011;7379;51.506;11.876;2022-07-03T01:10:54;4.53;;;3.03;;
14584;SDS011;7379;51.506;11.876;2022-07-03T01:13:31;6.60;;;3.20;;
14584;SDS011;7379;51.506;11.876;2022-07-03T01:16:05;3.92;;;3.20;;
14584;SDS011;7379;51.506;11.876;2022-07-03T01:18:38;4.60;;;3.53;;
14584;SDS011;7379;51.506;11.876;2022-07-03T01:21:13;4.35;;;3.28;;
14584;SDS011;7379;51.506;11.876;2022-07-03T01:23:56;4.32;;;3.00;;
14584;SDS011;7379;51.506;11.876;2022-07-03T01:26:48;4.80;;;3.50;;
14584;SDS011;7379;51.506;11.876;2022-07-03T01:29:21;3.40;;;3.10;;
14584;SDS011;7379;51.506;11.876;2022-07-03T01:31:52;5.35;;;3.55;;
14584;SDS011;7379;51.506;11.876;2022-07-03T01:34:21;4.50;;;3.17;;
14584;SDS011;7379;51.506;11.876;2022-07-03T01:36:51;3.50;;;3.20;;
14584;SDS011;7379;51.506;11.876;2022-07-03T01:39:24;3.63;;;3.33;;
14584;SDS011;7379;51.506;11.876;2022-07-03T01:41:54;3.88;;;3.17;;
14584;SDS011;7379;51.506;11.876;2022-07-03T01:44:25;3.65;;;3.30;;
14584;SDS011;7379;51.506;11.876;2022-07-03T01:46:53;3.97;;;3.50;;
14584;SDS011;7379;51.506;11.876;2022-07-03T01:49:22;4.63;;;3.20;;
14584;SDS011;7379;51.506;11.876;2022-07-03T01:51:52;4.68;;;3.13;;
14584;SDS011;7379;51.506;11.876;2022-07-03T01:54:20;5.45;;;3.53;;
14584;SDS011;7379;51.506;11.876;2022-07-03T01:56:51;5.47;;;3.13;;
14584;SDS011;7379;51.506;11.876;2022-07-03T01:59:20;3.92;;;3.40;;
14584;SDS011;7379;51.506;11.876;2022-07-03T02:01:48;4.03;;;3.40;;
14584;SDS011;7379;51.506;11.876;2022-07-03T02:04:20;3.90;;;3.50;;
14584;SDS011;7379;51.506;11.876;2022-07-03T02:06:55;3.50;;;3.20;;
14584;SDS011;7379;51.506;11.876;2022-07-03T02:09:29;5.80;;;3.40;;
14584;SDS011;7379;51.506;11.876;2022-07-03T02:12:08;5.40;;;3.65;;
14584;SDS011;7379;51.506;11.876;2022-07-03T02:14:39;3.97;;;3.58;;
14584;SDS011;7379;51.506;11.876;2022-07-03T02:17:14;11.27;;;3.42;;
14584;SDS011;7379;51.506;11.876;2022-07-03T02:19:43;4.00;;;3.28;;
14584;SDS011;7379;51.506;11.876;2022-07-03T02:22:18;4.20;;;3.60;;
14584;SDS011;7379;51.506;11.876;2022-07-03T02:24:46;3.83;;;3.50;;
14584;SDS011;7379;51.506;11.876;2022-07-03T02:27:17;3.55;;;3.22;;
14584;SDS011;7379;51.506;11.876;2022-07-03T02:29:49;6.70;;;3.38;;
14584;SDS011;7379;51.506;11.876;2022-07-03T02:32:20;5.18;;;3.70;;
14584;SDS011;7379;51.506;11.876;2022-07-03T02:34:49;4.35;;;3.75;;
14584;SDS011;7379;51.506;11.876;2022-07-03T02:37:23;4.45;;;3.65;;
14584;SDS011;7379;51.506;11.876;2022-07-03T02:39:57;17.35;;;4.40;;
14584;SDS011;7379;51.506;11.876;2022-07-03T02:42:32;6.15;;;3.72;;
14584;SDS011;7379;51.506;11.876;2022-07-03T02:45:05;3.78;;;3.47;;
14584;SDS011;7379;51.506;11.876;2022-07-03T02:47:36;3.83;;;3.53;;
14584;SDS011;7379;51.506;11.876;2022-07-03T02:50:11;7.20;;;4.00;;
14584;SDS011;7379;51.506;11.876;2022-07-03T02:52:47;4.32;;;3.92;;
14584;SDS011;7379;51.506;11.876;2022-07-03T02:55:26;4.57;;;3.75;;
14584;SDS011;7379;51.506;11.876;2022-07-03T02:58:05;4.43;;;3.40;;
14584;SDS011;7379;51.506;11.876;2022-07-03T03:00:52;4.13;;;3.72;;
14584;SDS011;7379;51.506;11.876;2022-07-03T03:03:24;4.07;;;3.45;;
14584;SDS011;7379;51.506;11.876;2022-07-03T03:05:55;3.90;;;3.50;;
14584;SDS011;7379;51.506;11.876;2022-07-03T03:11:32;4.28;;;3.20;;
14584;SDS011;7379;51.506;11.876;2022-07-03T03:17:16;6.97;;;3.80;;
14584;SDS011;7379;51.506;11.876;2022-07-03T03:20:04;4.15;;;3.40;;
14584;SDS011;7379;51.506;11.876;2022-07-03T03:26:30;3.75;;;3.45;;
14584;SDS011;7379;51.506;11.876;2022-07-03T03:29:19;4.10;;;3.70;;
14584;SDS011;7379;51.506;11.876;2022-07-03T03:32:20;5.82;;;3.85;;
14584;SDS011;7379;51.506;11.876;2022-07-03T03:35:07;4.30;;;3.72;;
14584;SDS011;7379;51.506;11.876;2022-07-03T03:37:35;6.20;;;3.80;;
14584;SDS011;7379;51.506;11.876;2022-07-03T03:42:56;4.22;;;3.83;;
14584;SDS011;7379;51.506;11.876;2022-07-03T03:45:36;3.80;;;3.50;;
14584;SDS011;7379;51.506;11.876;2022-07-03T03:48:17;4.10;;;3.70;;
14584;SDS011;7379;51.506;11.876;2022-07-03T03:51:16;5.93;;;3.83;;
14584;SDS011;7379;51.506;11.876;2022-07-03T03:54:06;4.38;;;3.97;;
14584;SDS011;7379;51.506;11.876;2022-07-03T03:59:49;5.80;;;3.58;;
14584;SDS011;7379;51.506;11.876;2022-07-03T04:02:39;4.22;;;3.67;;
14584;SDS011;7379;51.506;11.876;2022-07-03T04:08:09;8.75;;;3.90;;
14584;SDS011;7379;51.506;11.876;2022-07-03T04:10:36;4.80;;;4.05;;
14584;SDS011;7379;51.506;11.876;2022-07-03T04:13:03;4.05;;;3.75;;
14584;SDS011;7379;51.506;11.876;2022-07-03T04:15:30;4.53;;;4.13;;
14584;SDS011;7379;51.506;11.876;2022-07-03T04:18:00;4.47;;;4.07;;
14584;SDS011;7379;51.506;11.876;2022-07-03T04:20:31;4.15;;;3.78;;
14584;SDS011;7379;51.506;11.876;2022-07-03T04:22:59;4.18;;;3.78;;
14584;SDS011;7379;51.506;11.876;2022-07-03T04:25:26;5.55;;;3.80;;
14584;SDS011;7379;51.506;11.876;2022-07-03T04:27:53;4.10;;;3.80;;
14584;SDS011;7379;51.506;11.876;2022-07-03T04:30:20;4.38;;;3.80;;
14584;SDS011;7379;51.506;11.876;2022-07-03T04:32:50;4.82;;;3.75;;
14584;SDS011;7379;51.506;11.876;2022-07-03T04:35:18;6.15;;;3.70;;
14584;SDS011;7379;51.506;11.876;2022-07-03T04:37:44;4.30;;;3.90;;
14584;SDS011;7379;51.506;11.876;2022-07-03T04:40:16;4.72;;;4.00;;
14584;SDS011;7379;51.506;11.876;2022-07-03T04:42:52;4.95;;;3.80;;
14584;SDS011;7379;51.506;11.876;2022-07-03T04:45:36;5.00;;;4.43;;
14584;SDS011;7379;51.506;11.876;2022-07-03T04:48:30;5.43;;;4.40;;
14584;SDS011;7379;51.506;11.876;2022-07-03T04:50:58;5.45;;;4.15;;
14584;SDS011;7379;51.506;11.876;2022-07-03T04:54:01;5.20;;;4.03;;
14584;SDS011;7379;51.506;11.876;2022-07-03T04:57:07;5.65;;;4.28;;
14584;SDS011;7379;51.506;11.876;2022-07-03T04:59:59;6.28;;;4.05;;
14584;SDS011;7379;51.506;11.876;2022-07-03T05:05:47;6.15;;;4.30;;
14584;SDS011;7379;51.506;11.876;2022-07-03T05:08:45;4.68;;;4.28;;
14584;SDS011;7379;51.506;11.876;2022-07-03T05:11:46;5.10;;;4.60;;
14584;SDS011;7379;51.506;11.876;2022-07-03T05:14:39;5.25;;;4.40;;
14584;SDS011;7379;51.506;11.876;2022-07-03T05:17:28;6.05;;;4.40;;
14584;SDS011;7379;51.506;11.876;2022-07-03T05:20:34;4.85;;;4.30;;
14584;SDS011;7379;51.506;11.876;2022-07-03T05:27:10;5.25;;;4.22;;
14584;SDS011;7379;51.506;11.876;2022-07-03T05:33:50;4.32;;;3.80;;
14584;SDS011;7379;51.506;11.876;2022-07-03T05:36:31;4.32;;;3.92;;
14584;SDS011;7379;51.506;11.876;2022-07-03T05:38:57;5.20;;;3.85;;
14584;SDS011;7379;51.506;11.876;2022-07-03T05:41:42;4.25;;;3.83;;
14584;SDS011;7379;51.506;11.876;2022-07-03T05:44:08;4.40;;;4.00;;
14584;SDS011;7379;51.506;11.876;2022-07-03T05:46:35;4.35;;;3.95;;
14584;SDS011;7379;51.506;11.876;2022-07-03T05:49:03;4.75;;;4.15;;
14584;SDS011;7379;51.506;11.876;2022-07-03T05:51:30;5.10;;;4.30;;
14584;SDS011;7379;51.506;11.876;2022-07-03T05:53:57;5.05;;;4.13;;
14584;SDS011;7379;51.506;11.876;2022-07-03T05:56:24;4.18;;;3.78;;
14584;SDS011;7379;51.506;11.876;2022-07-03T05:58:50;4.90;;;3.97;;
14584;SDS011;7379;51.506;11.876;2022-07-03T06:04:37;4.95;;;4.00;;
14584;SDS011;7379;51.506;11.876;2022-07-03T06:07:04;4.13;;;3.70;;
14584;SDS011;7379;51.506;11.876;2022-07-03T06:09:31;7.68;;;4.40;;
14584;SDS011;7379;51.506;11.876;2022-07-03T06:11:58;6.90;;;4.43;;
14584;SDS011;7379;51.506;11.876;2022-07-03T06:14:25;4.28;;;3.88;;
14584;SDS011;7379;51.506;11.876;2022-07-03T06:16:51;4.82;;;4.00;;
14584;SDS011;7379;51.506;11.876;2022-07-03T06:19:18;4.20;;;3.80;;
14584;SDS011;7379;51.506;11.876;2022-07-03T06:21:46;5.22;;;3.78;;
14584;SDS011;7379;51.506;11.876;2022-07-03T06:24:13;4.05;;;3.53;;
14584;SDS011;7379;51.506;11.876;2022-07-03T06:26:40;4.07;;;3.63;;
14584;SDS011;7379;51.506;11.876;2022-07-03T06:29:06;5.68;;;3.78;;
14584;SDS011;7379;51.506;11.876;2022-07-03T06:31:33;3.92;;;3.63;;
14584;SDS011;7379;51.506;11.876;2022-07-03T06:34:00;4.30;;;3.90;;
14584;SDS011;7379;51.506;11.876;2022-07-03T06:36:27;4.22;;;3.75;;
14584;SDS011;7379;51.506;11.876;2022-07-03T06:38:55;3.67;;;3.30;;
14584;SDS011;7379;51.506;11.876;2022-07-03T06:41:22;4.47;;;3.30;;
14584;SDS011;7379;51.506;11.876;2022-07-03T06:43:49;3.90;;;3.60;;
14584;SDS011;7379;51.506;11.876;2022-07-03T06:46:15;3.78;;;3.47;;
14584;SDS011;7379;51.506;11.876;2022-07-03T06:48:42;4.55;;;3.97;;
14584;SDS011;7379;51.506;11.876;2022-07-03T06:51:09;4.45;;;3.60;;
14584;SDS011;7379;51.506;11.876;2022-07-03T06:53:36;4.85;;;3.33;;
14584;SDS011;7379;51.506;11.876;2022-07-03T06:56:04;3.80;;;3.47;;
14584;SDS011;7379;51.506;11.876;2022-07-03T06:58:31;3.58;;;3.28;;
14584;SDS011;7379;51.506;11.876;2022-07-03T07:00:57;4.60;;;3.50;;
14584;SDS011;7379;51.506;11.876;2022-07-03T07:03:24;3.63;;;3.30;;
14584;SDS011;7379;51.506;11.876;2022-07-03T07:05:51;3.60;;;3.30;;
14584;SDS011;7379;51.506;11.876;2022-07-03T07:08:18;3.70;;;3.40;;
14584;SDS011;7379;51.506;11.876;2022-07-03T07:10:44;3.22;;;3.00;;
14584;SDS011;7379;51.506;11.876;2022-07-03T07:13:12;3.92;;;3.33;;
14584;SDS011;7379;51.506;11.876;2022-07-03T07:15:39;3.50;;;3.20;;
14584;SDS011;7379;51.506;11.876;2022-07-03T07:18:06;4.15;;;3.42;;
14584;SDS011;7379;51.506;11.876;2022-07-03T07:20:33;3.95;;;3.60;;
14584;SDS011;7379;51.506;11.876;2022-07-03T07:23:00;3.30;;;3.00;;
14584;SDS011;7379;51.506;11.876;2022-07-03T07:25:26;3.40;;;3.10;;
14584;SDS011;7379;51.506;11.876;2022-07-03T07:27:53;3.50;;;3.20;;
14584;SDS011;7379;51.506;11.876;2022-07-03T07:30:21;4.03;;;3.53;;
14584;SDS011;7379;51.506;11.876;2022-07-03T07:32:48;3.47;;;3.17;;
14584;SDS011;7379;51.506;11.876;2022-07-03T07:35:15;4.10;;;3.47;;
14584;SDS011;7379;51.506;11.876;2022-07-03T07:37:43;3.40;;;3.10;;
14584;SDS011;7379;51.506;11.876;2022-07-03T07:40:10;3.38;;;3.08;;
14584;SDS011;7379;51.506;11.876;2022-07-03T07:42:38;3.40;;;3.05;;
14584;SDS011;7379;51.506;11.876;2022-07-03T07:45:05;3.50;;;3.17;;
14584;SDS011;7379;51.506;11.876;2022-07-03T07:47:34;3.55;;;2.90;;
14584;SDS011;7379;51.506;11.876;2022-07-03T07:50:01;4.45;;;3.10;;
14584;SDS011;7379;51.506;11.876;2022-07-03T07:52:28;3.90;;;3.50;;
14584;SDS011;7379;51.506;11.876;2022-07-03T07:54:55;3.42;;;3.13;;
14584;SDS011;7379;51.506;11.876;2022-07-03T07:57:22;3.70;;;3.13;;
14584;SDS011;7379;51.506;11.876;2022-07-03T07:59:48;3.50;;;3.20;;
14584;SDS011;7379;51.506;11.876;2022-07-03T08:02:15;3.00;;;2.67;;
14584;SDS011;7379;51.506;11.876;2022-07-03T08:05:09;3.47;;;3.03;;
14584;SDS011;7379;51.506;11.876;2022-07-03T08:07:54;3.20;;;2.92;;
14584;SDS011;7379;51.506;11.876;2022-07-03T08:10:20;3.47;;;3.17;;
14584;SDS011;7379;51.506;11.876;2022-07-03T08:12:47;4.40;;;2.92;;
14584;SDS011;7379;51.506;11.876;2022-07-03T08:15:14;3.17;;;2.83;;
14584;SDS011;7379;51.506;11.876;2022-07-03T08:17:41;3.10;;;2.80;;
14584;SDS011;7379;51.506;11.876;2022-07-03T08:20:10;3.35;;;3.05;;
14584;SDS011;7379;51.506;11.876;2022-07-03T08:22:37;3.67;;;2.90;;
14584;SDS011;7379;51.506;11.876;2022-07-03T08:25:04;3.35;;;3.05;;
14584;SDS011;7379;51.506;11.876;2022-07-03T08:27:31;3.63;;;2.80;;
14584;SDS011;7379;51.506;11.876;2022-07-03T08:29:57;3.35;;;2.92;;
14584;SDS011;7379;51.506;11.876;2022-07-03T08:32:24;2.88;;;2.67;;
14584;SDS011;7379;51.506;11.876;2022-07-03T08:34:51;2.85;;;2.65;;
14584;SDS011;7379;51.506;11.876;2022-07-03T08:37:19;3.00;;;2.70;;
14584;SDS011;7379;51.506;11.876;2022-07-03T08:39:46;2.80;;;2.60;;
14584;SDS011;7379;51.506;11.876;2022-07-03T08:42:13;3.25;;;2.70;;
14584;SDS011;7379;51.506;11.876;2022-07-03T08:44:41;2.67;;;2.47;;
14584;SDS011;7379;51.506;11.876;2022-07-03T08:47:09;3.47;;;2.65;;
14584;SDS011;7379;51.506;11.876;2022-07-03T08:49:38;2.72;;;2.53;;
14584;SDS011;7379;51.506;11.876;2022-07-03T08:52:06;2.85;;;2.45;;
14584;SDS011;7379;51.506;11.876;2022-07-03T08:54:36;4.32;;;2.50;;
14584;SDS011;7379;51.506;11.876;2022-07-03T08:57:04;3.20;;;2.45;;
14584;SDS011;7379;51.506;11.876;2022-07-03T08:59:32;2.92;;;2.40;;
14584;SDS011;7379;51.506;11.876;2022-07-03T09:02:03;3.53;;;2.10;;
14584;SDS011;7379;51.506;11.876;2022-07-03T09:04:30;2.47;;;2.28;;
14584;SDS011;7379;51.506;11.876;2022-07-03T09:06:57;2.47;;;2.20;;
14584;SDS011;7379;51.506;11.876;2022-07-03T09:09:25;2.40;;;2.20;;
14584;SDS011;7379;51.506;11.876;2022-07-03T09:11:54;2.92;;;2.40;;
14584;SDS011;7379;51.506;11.876;2022-07-03T09:14:21;2.33;;;2.13;;
14584;SDS011;7379;51.506;11.876;2022-07-03T09:16:47;3.03;;;2.38;;
14584;SDS011;7379;51.506;11.876;2022-07-03T09:19:15;2.85;;;2.20;;
14584;SDS011;7379;51.506;11.876;2022-07-03T09:21:58;3.15;;;2.25;;
14584;SDS011;7379;51.506;11.876;2022-07-03T09:24:25;2.50;;;2.30;;
14584;SDS011;7379;51.506;11.876;2022-07-03T09:26:55;2.40;;;2.20;;
14584;SDS011;7379;51.506;11.876;2022-07-03T09:29:22;2.40;;;2.20;;
14584;SDS011;7379;51.506;11.876;2022-07-03T09:31:53;2.40;;;2.20;;
14584;SDS011;7379;51.506;11.876;2022-07-03T09:34:21;2.83;;;2.28;;
14584;SDS011;7379;51.506;11.876;2022-07-03T09:36:49;3.58;;;2.35;;
14584;SDS011;7379;51.506;11.876;2022-07-03T09:39:18;3.60;;;2.20;;
14584;SDS011;7379;51.506;11.876;2022-07-03T09:41:52;2.83;;;2.10;;
14584;SDS011;7379;51.506;11.876;2022-07-03T09:44:29;2.38;;;2.17;;
14584;SDS011;7379;51.506;11.876;2022-07-03T09:47:06;4.57;;;2.30;;
14584;SDS011;7379;51.506;11.876;2022-07-03T09:49:45;2.03;;;1.90;;
14584;SDS011;7379;51.506;11.876;2022-07-03T09:52:25;2.60;;;2.17;;
14584;SDS011;7379;51.506;11.876;2022-07-03T09:54:57;3.13;;;2.30;;
14584;SDS011;7379;51.506;11.876;2022-07-03T09:57:27;3.97;;;2.20;;
14584;SDS011;7379;51.506;11.876;2022-07-03T10:00:11;3.15;;;2.17;;
14584;SDS011;7379;51.506;11.876;2022-07-03T10:02:52;2.30;;;2.10;;
14584;SDS011;7379;51.506;11.876;2022-07-03T10:05:23;2.50;;;2.30;;
14584;SDS011;7379;51.506;11.876;2022-07-03T10:07:52;2.40;;;2.17;;
14584;SDS011;7379;51.506;11.876;2022-07-03T10:10:22;3.20;;;2.20;;
14584;SDS011;7379;51.506;11.876;2022-07-03T10:12:52;2.03;;;1.90;;
14584;SDS011;7379;51.506;11.876;2022-07-03T10:15:20;3.15;;;2.00;;
14584;SDS011;7379;51.506;11.876;2022-07-03T10:17:48;2.15;;;1.95;;
14584;SDS011;7379;51.506;11.876;2022-07-03T10:20:19;4.18;;;2.00;;
14584;SDS011;7379;51.506;11.876;2022-07-03T10:22:51;2.22;;;2.03;;
14584;SDS011;7379;51.506;11.876;2022-07-03T10:25:18;2.08;;;1.90;;
14584;SDS011;7379;51.506;11.876;2022-07-03T10:27:46;2.78;;;1.98;;
14584;SDS011;7379;51.506;11.876;2022-07-03T10:30:15;2.20;;;2.00;;
14584;SDS011;7379;51.506;11.876;2022-07-03T10:32:44;3.25;;;2.10;;
14584;SDS011;7379;51.506;11.876;2022-07-03T10:35:12;2.20;;;2.00;;
14584;SDS011;7379;51.506;11.876;2022-07-03T10:40:27;2.00;;;1.80;;
14584;SDS011;7379;51.506;11.876;2022-07-03T10:43:23;3.92;;;2.00;;
14584;SDS011;7379;51.506;11.876;2022-07-03T10:46:11;2.25;;;2.05;;
14584;SDS011;7379;51.506;11.876;2022-07-03T10:48:56;2.08;;;1.70;;
14584;SDS011;7379;51.506;11.876;2022-07-03T10:51:25;2.58;;;1.90;;
14584;SDS011;7379;51.506;11.876;2022-07-03T11:02:34;2.22;;;1.90;;
14584;SDS011;7379;51.506;11.876;2022-07-03T11:05:06;1.70;;;1.60;;
14584;SDS011;7379;51.506;11.876;2022-07-03T11:08:04;2.28;;;1.90;;
14584;SDS011;7379;51.506;11.876;2022-07-03T11:10:35;4.18;;;1.80;;
14584;SDS011;7379;51.506;11.876;2022-07-03T11:13:10;1.92;;;1.70;;
14584;SDS011;7379;51.506;11.876;2022-07-03T11:15:43;1.90;;;1.70;;
14584;SDS011;7379;51.506;11.876;2022-07-03T11:18:16;2.20;;;1.65;;
14584;SDS011;7379;51.506;11.876;2022-07-03T11:20:48;2.38;;;1.70;;
14584;SDS011;7379;51.506;11.876;2022-07-03T11:23:40;1.77;;;1.60;;
14584;SDS011;7379;51.506;11.876;2022-07-03T11:26:21;1.80;;;1.67;;
14584;SDS011;7379;51.506;11.876;2022-07-03T11:28:49;3.47;;;1.88;;
14584;SDS011;7379;51.506;11.876;2022-07-03T11:31:17;1.98;;;1.80;;
14584;SDS011;7379;51.506;11.876;2022-07-03T11:33:48;2.53;;;1.60;;
14584;SDS011;7379;51.506;11.876;2022-07-03T11:36:25;1.73;;;1.63;;
14584;SDS011;7379;51.506;11.876;2022-07-03T11:39:04;2.47;;;1.60;;
14584;SDS011;7379;51.506;11.876;2022-07-03T11:41:43;2.67;;;1.70;;
14584;SDS011;7379;51.506;11.876;2022-07-03T11:44:15;2.20;;;1.77;;
14584;SDS011;7379;51.506;11.876;2022-07-03T11:46:46;1.70;;;1.60;;
14584;SDS011;7379;51.506;11.876;2022-07-03T11:49:16;2.50;;;1.80;;
14584;SDS011;7379;51.506;11.876;2022-07-03T11:51:52;2.28;;;1.70;;
14584;SDS011;7379;51.506;11.876;2022-07-03T11:54:21;1.77;;;1.60;;
14584;SDS011;7379;51.506;11.876;2022-07-03T11:56:47;1.90;;;1.70;;
14584;SDS011;7379;51.506;11.876;2022-07-03T11:59:14;1.88;;;1.70;;
14584;SDS011;7379;51.506;11.876;2022-07-03T12:01:41;2.92;;;1.80;;
14584;SDS011;7379;51.506;11.876;2022-07-03T12:04:10;2.70;;;1.67;;
14584;SDS011;7379;51.506;11.876;2022-07-03T12:06:40;1.67;;;1.50;;
14584;SDS011;7379;51.506;11.876;2022-07-03T12:09:17;2.25;;;1.65;;
14584;SDS011;7379;51.506;11.876;2022-07-03T12:11:58;2.00;;;1.80;;
14584;SDS011;7379;51.506;11.876;2022-07-03T12:14:35;2.08;;;1.70;;
14584;SDS011;7379;51.506;11.876;2022-07-03T12:17:07;2.00;;;1.80;;
14584;SDS011;7379;51.506;11.876;2022-07-03T12:19:35;2.10;;;1.90;;
14584;SDS011;7379;51.506;11.876;2022-07-03T12:22:03;1.60;;;1.50;;
14584;SDS011;7379;51.506;11.876;2022-07-03T12:24:30;2.10;;;1.60;;
14584;SDS011;7379;51.506;11.876;2022-07-03T12:26:58;2.55;;;1.50;;
14584;SDS011;7379;51.506;11.876;2022-07-03T12:29:28;1.73;;;1.63;;
14584;SDS011;7379;51.506;11.876;2022-07-03T12:31:56;1.70;;;1.60;;
14584;SDS011;7379;51.506;11.876;2022-07-03T12:34:23;2.67;;;1.67;;
14584;SDS011;7379;51.506;11.876;2022-07-03T12:36:53;4.97;;;1.80;;
14584;SDS011;7379;51.506;11.876;2022-07-03T12:39:23;1.85;;;1.60;;
14584;SDS011;7379;51.506;11.876;2022-07-03T12:41:50;1.80;;;1.70;;
14584;SDS011;7379;51.506;11.876;2022-07-03T12:44:17;3.45;;;1.65;;
14584;SDS011;7379;51.506;11.876;2022-07-03T12:46:46;2.35;;;1.60;;
14584;SDS011;7379;51.506;11.876;2022-07-03T12:49:14;1.80;;;1.70;;
14584;SDS011;7379;51.506;11.876;2022-07-03T12:51:42;1.60;;;1.50;;
14584;SDS011;7379;51.506;11.876;2022-07-03T12:54:10;1.67;;;1.55;;
14584;SDS011;7379;51.506;11.876;2022-07-03T12:56:40;3.85;;;1.67;;
14584;SDS011;7379;51.506;11.876;2022-07-03T13:01:59;1.70;;;1.60;;
14584;SDS011;7379;51.506;11.876;2022-07-03T13:04:30;1.60;;;1.50;;
14584;SDS011;7379;51.506;11.876;2022-07-03T13:06:59;2.58;;;1.60;;
14584;SDS011;7379;51.506;11.876;2022-07-03T13:09:26;1.65;;;1.55;;
14584;SDS011;7379;51.506;11.876;2022-07-03T13:11:54;1.60;;;1.50;;
14584;SDS011;7379;51.506;11.876;2022-07-03T13:14:21;1.85;;;1.65;;
14584;SDS011;7379;51.506;11.876;2022-07-03T13:16:49;3.13;;;1.35;;
14584;SDS011;7379;51.506;11.876;2022-07-03T13:19:18;1.88;;;1.65;;
14584;SDS011;7379;51.506;11.876;2022-07-03T13:21:47;1.80;;;1.70;;
14584;SDS011;7379;51.506;11.876;2022-07-03T13:24:28;1.83;;;1.70;;
14584;SDS011;7379;51.506;11.876;2022-07-03T13:26:56;2.35;;;1.45;;
14584;SDS011;7379;51.506;11.876;2022-07-03T13:29:24;1.60;;;1.50;;
14584;SDS011;7379;51.506;11.876;2022-07-03T13:31:50;1.67;;;1.58;;
14584;SDS011;7379;51.506;11.876;2022-07-03T13:34:17;1.73;;;1.63;;
14584;SDS011;7379;51.506;11.876;2022-07-03T13:36:44;1.58;;;1.48;;
14584;SDS011;7379;51.506;11.876;2022-07-03T13:39:11;1.63;;;1.52;;
14584;SDS011;7379;51.506;11.876;2022-07-03T13:41:37;1.50;;;1.40;;
14584;SDS011;7379;51.506;11.876;2022-07-03T13:44:05;2.53;;;1.27;;
14584;SDS011;7379;51.506;11.876;2022-07-03T13:46:32;1.88;;;1.70;;
14584;SDS011;7379;51.506;11.876;2022-07-03T13:48:59;2.58;;;1.60;;
14584;SDS011;7379;51.506;11.876;2022-07-03T13:51:26;3.40;;;1.80;;
14584;SDS011;7379;51.506;11.876;2022-07-03T13:53:53;2.83;;;1.50;;
14584;SDS011;7379;51.506;11.876;2022-07-03T13:56:19;3.08;;;1.80;;
14584;SDS011;7379;51.506;11.876;2022-07-03T13:58:46;1.80;;;1.70;;
14584;SDS011;7379;51.506;11.876;2022-07-03T14:01:14;1.85;;;1.67;;
14584;SDS011;7379;51.506;11.876;2022-07-03T14:03:41;1.98;;;1.55;;
14584;SDS011;7379;51.506;11.876;2022-07-03T14:06:08;1.85;;;1.50;;
14584;SDS011;7379;51.506;11.876;2022-07-03T14:08:35;1.63;;;1.50;;
14584;SDS011;7379;51.506;11.876;2022-07-03T14:11:02;2.20;;;1.58;;
14584;SDS011;7379;51.506;11.876;2022-07-03T14:13:28;1.90;;;1.58;;
14584;SDS011;7379;51.506;11.876;2022-07-03T14:15:55;1.40;;;1.30;;
14584;SDS011;7379;51.506;11.876;2022-07-03T14:18:23;2.03;;;1.60;;
14584;SDS011;7379;51.506;11.876;2022-07-03T14:20:50;3.38;;;1.60;;
14584;SDS011;7379;51.506;11.876;2022-07-03T14:23:17;3.50;;;1.63;;
14584;SDS011;7379;51.506;11.876;2022-07-03T14:25:44;2.30;;;1.50;;
14584;SDS011;7379;51.506;11.876;2022-07-03T14:28:10;2.78;;;1.50;;
14584;SDS011;7379;51.506;11.876;2022-07-03T14:30:55;1.50;;;1.40;;
14584;SDS011;7379;51.506;11.876;2022-07-03T14:33:41;1.60;;;1.50;;
14584;SDS011;7379;51.506;11.876;2022-07-03T14:36:08;2.33;;;1.40;;
14584;SDS011;7379;51.506;11.876;2022-07-03T14:38:34;1.65;;;1.50;;
14584;SDS011;7379;51.506;11.876;2022-07-03T14:41:01;1.58;;;1.48;;
14584;SDS011;7379;51.506;11.876;2022-07-03T14:43:28;1.50;;;1.40;;
14584;SDS011;7379;51.506;11.876;2022-07-03T14:45:55;1.70;;;1.60;;
14584;SDS011;7379;51.506;11.876;2022-07-03T14:48:21;1.80;;;1.60;;
14584;SDS011;7379;51.506;11.876;2022-07-03T14:50:50;1.73;;;1.60;;
14584;SDS011;7379;51.506;11.876;2022-07-03T14:53:17;1.70;;;1.60;;
14584;SDS011;7379;51.506;11.876;2022-07-03T14:55:44;2.50;;;1.50;;
14584;SDS011;7379;51.506;11.876;2022-07-03T14:58:16;3.03;;;1.70;;
14584;SDS011;7379;51.506;11.876;2022-07-03T15:00:47;2.88;;;1.40;;
14584;SDS011;7379;51.506;11.876;2022-07-03T15:03:19;1.80;;;1.70;;
14584;SDS011;7379;51.506;11.876;2022-07-03T15:05:55;2.90;;;1.70;;
14584;SDS011;7379;51.506;11.876;2022-07-03T15:08:30;3.00;;;1.48;;
14584;SDS011;7379;51.506;11.876;2022-07-03T15:11:21;1.60;;;1.50;;
14584;SDS011;7379;51.506;11.876;2022-07-03T15:14:07;1.45;;;1.35;;
14584;SDS011;7379;51.506;11.876;2022-07-03T15:16:35;2.75;;;1.48;;
14584;SDS011;7379;51.506;11.876;2022-07-03T15:19:05;1.48;;;1.33;;
14584;SDS011;7379;51.506;11.876;2022-07-03T15:21:35;1.50;;;1.40;;
14584;SDS011;7379;51.506;11.876;2022-07-03T15:24:05;3.17;;;1.63;;
14584;SDS011;7379;51.506;11.876;2022-07-03T15:26:33;1.77;;;1.50;;
14584;SDS011;7379;51.506;11.876;2022-07-03T15:29:01;3.08;;;1.70;;
14584;SDS011;7379;51.506;11.876;2022-07-03T15:31:29;2.42;;;1.27;;
14584;SDS011;7379;51.506;11.876;2022-07-03T15:34:02;1.77;;;1.30;;
14584;SDS011;7379;51.506;11.876;2022-07-03T15:36:29;3.38;;;1.70;;
14584;SDS011;7379;51.506;11.876;2022-07-03T15:39:05;1.60;;;1.50;;
14584;SDS011;7379;51.506;11.876;2022-07-03T15:41:35;1.50;;;1.40;;
14584;SDS011;7379;51.506;11.876;2022-07-03T15:44:13;2.08;;;1.50;;
14584;SDS011;7379;51.506;11.876;2022-07-03T15:46:50;1.55;;;1.30;;
14584;SDS011;7379;51.506;11.876;2022-07-03T15:49:26;2.53;;;1.50;;
14584;SDS011;7379;51.506;11.876;2022-07-03T15:52:10;3.28;;;1.60;;
14584;SDS011;7379;51.506;11.876;2022-07-03T15:54:50;1.30;;;1.20;;
14584;SDS011;7379;51.506;11.876;2022-07-03T15:57:24;1.50;;;1.40;;
14584;SDS011;7379;51.506;11.876;2022-07-03T15:59:56;1.55;;;1.27;;
14584;SDS011;7379;51.506;11.876;2022-07-03T16:02:26;3.00;;;1.50;;
14584;SDS011;7379;51.506;11.876;2022-07-03T16:05:03;1.60;;;1.50;;
14584;SDS011;7379;51.506;11.876;2022-07-03T16:07:34;1.65;;;1.48;;